createdAt,value
2022-09-14T00:00:13.537Z,18.18
2022-09-14T00:03:01.638Z,18.09
2022-09-14T00:05:49.731Z,18.23
2022-09-14T00:08:37.905Z,18.05
2022-09-14T00:11:29.364Z,18.25
2022-09-14T00:14:18.355Z,18.20
2022-09-14T00:17:06.108Z,18.18
2022-09-14T00:19:53.971Z,18.15
2022-09-14T00:22:41.856Z,18.07
2022-09-14T00:25:29.909Z,18.21
2022-09-14T00:28:17.866Z,18.11
2022-09-14T00:31:06.972Z,18.18
2022-09-14T00:33:54.710Z,18.03
2022-09-14T00:36:47.210Z,17.91
2022-09-14T00:39:34.948Z,17.73
2022-09-14T00:42:23.051Z,17.79
2022-09-14T00:45:18.223Z,17.86
2022-09-14T00:48:06.002Z,17.92
2022-09-14T00:50:54.681Z,17.98
2022-09-14T00:53:43.016Z,17.93
2022-09-14T00:56:31.470Z,18.11
2022-09-14T00:59:29.710Z,18.17
2022-09-14T01:02:21.551Z,18.16
2022-09-14T01:05:11.615Z,18.19
2022-09-14T01:08:49.533Z,18.27
2022-09-14T01:12:11.897Z,18.26
2022-09-14T01:15:21.452Z,18.33
2022-09-14T01:18:29.273Z,18.32
2022-09-14T01:21:32.575Z,18.34
2022-09-14T01:24:42.616Z,18.30
2022-09-14T01:27:41.635Z,18.22
2022-09-14T01:30:33.843Z,18.13
2022-09-14T01:33:36.621Z,18.18
2022-09-14T01:36:26.797Z,18.12
2022-09-14T01:39:16.611Z,18.28
2022-09-14T01:42:05.083Z,18.20
2022-09-14T01:44:58.266Z,18.26
2022-09-14T01:47:52.741Z,18.29
2022-09-14T01:50:45.173Z,18.27
2022-09-14T01:53:47.320Z,18.21
2022-09-14T01:56:42.441Z,18.09
2022-09-14T01:59:38.497Z,18.13
2022-09-14T02:02:33.415Z,18.19
2022-09-14T02:05:38.013Z,18.04
2022-09-14T02:08:28.318Z,18.19
2022-09-14T02:11:15.949Z,18.19
2022-09-14T02:14:04.347Z,18.21
2022-09-14T02:16:52.113Z,18.21
2022-09-14T02:19:54.805Z,18.02
2022-09-14T02:22:42.565Z,18.13
2022-09-14T02:25:30.854Z,18.12
2022-09-14T02:28:18.573Z,18.13
2022-09-14T02:31:47.057Z,18.15
2022-09-14T02:35:05.833Z,18.13
2022-09-14T02:38:15.292Z,18.12
2022-09-14T02:41:19.104Z,18.09
2022-09-14T02:44:43.546Z,18.06
2022-09-14T02:47:50.708Z,18.06
2022-09-14T02:50:56.454Z,18.01
2022-09-14T02:54:08.903Z,18.05
2022-09-14T02:57:02.001Z,18.02
2022-09-14T02:59:49.922Z,17.99
2022-09-14T03:02:37.677Z,17.95
2022-09-14T03:05:25.570Z,17.99
2022-09-14T03:08:13.588Z,18.02
2022-09-14T03:11:02.115Z,18.13
2022-09-14T03:13:49.898Z,18.07
2022-09-14T03:16:39.018Z,18.16
2022-09-14T03:19:26.773Z,18.21
2022-09-14T03:22:14.487Z,18.22
2022-09-14T03:25:02.197Z,18.06
2022-09-14T03:27:53.550Z,18.24
2022-09-14T03:30:41.391Z,18.26
2022-09-14T03:33:29.141Z,18.33
2022-09-14T03:36:19.744Z,18.24
2022-09-14T03:39:07.548Z,18.34
2022-09-14T03:41:55.252Z,18.26
2022-09-14T03:44:43.380Z,18.33
2022-09-14T03:47:31.273Z,18.28
2022-09-14T03:50:20.015Z,18.28
2022-09-14T03:53:07.899Z,18.24
2022-09-14T03:55:55.819Z,18.11
2022-09-14T03:58:45.369Z,18.25
2022-09-14T04:01:33.264Z,18.02
2022-09-14T04:04:21.160Z,18.25
2022-09-14T04:07:08.978Z,18.22
2022-09-14T04:09:56.756Z,18.21
2022-09-14T04:12:44.483Z,17.99
2022-09-14T04:15:32.220Z,17.78
2022-09-14T04:18:19.976Z,17.80
2022-09-14T04:21:20.717Z,17.83
2022-09-14T04:24:15.698Z,17.86
2022-09-14T04:27:04.248Z,17.58
2022-09-14T04:29:52.180Z,17.36
2022-09-14T04:32:39.909Z,17.60
2022-09-14T04:35:27.655Z,17.40
2022-09-14T04:38:15.371Z,17.46
2022-09-14T04:41:16.100Z,17.55
2022-09-14T04:44:03.860Z,17.44
2022-09-14T04:46:51.801Z,17.53
2022-09-14T04:49:39.756Z,17.51
2022-09-14T04:52:27.526Z,17.66
2022-09-14T04:55:15.529Z,17.59
2022-09-14T04:58:03.672Z,17.63
2022-09-14T05:00:51.380Z,17.36
2022-09-14T05:03:40.428Z,17.57
2022-09-14T05:06:32.563Z,17.66
2022-09-14T05:09:20.467Z,17.63
2022-09-14T05:12:08.486Z,17.65
2022-09-14T05:14:56.316Z,17.56
2022-09-14T05:17:44.043Z,17.51
2022-09-14T05:20:31.848Z,17.56
2022-09-14T05:23:19.587Z,17.68
2022-09-14T05:26:07.610Z,17.63
2022-09-14T05:28:58.132Z,17.72
2022-09-14T05:31:46.432Z,17.75
2022-09-14T05:34:34.197Z,17.64
2022-09-14T05:37:21.935Z,17.61
2022-09-14T05:40:10.400Z,17.69
2022-09-14T05:42:58.209Z,17.57
2022-09-14T05:45:46.088Z,17.68
2022-09-14T05:48:35.249Z,17.65
2022-09-14T05:51:25.425Z,17.71
2022-09-14T05:54:13.403Z,17.68
2022-09-14T05:57:01.160Z,17.73
2022-09-14T05:59:48.904Z,17.79
2022-09-14T06:02:36.678Z,17.71
2022-09-14T06:05:25.593Z,17.84
2022-09-14T06:08:13.417Z,17.78
2022-09-14T06:11:14.938Z,17.84
2022-09-14T06:14:04.435Z,17.76
2022-09-14T06:16:52.193Z,17.74
2022-09-14T06:19:39.951Z,17.51
2022-09-14T06:22:27.650Z,17.78
2022-09-14T06:25:15.347Z,17.89
2022-09-14T06:28:03.203Z,17.85
2022-09-14T06:30:51.270Z,17.88
2022-09-14T06:33:43.716Z,17.90
2022-09-14T06:36:31.420Z,17.83
2022-09-14T06:39:19.120Z,17.89
2022-09-14T06:42:06.957Z,17.89
2022-09-14T06:44:54.761Z,17.86
2022-09-14T06:47:42.483Z,17.92
2022-09-14T06:50:30.173Z,17.98
2022-09-14T06:53:17.950Z,17.82
2022-09-14T06:56:05.737Z,17.90
2022-09-14T06:58:53.800Z,18.16
2022-09-14T07:01:42.919Z,18.19
2022-09-14T07:04:30.627Z,18.05
2022-09-14T07:07:18.364Z,18.25
2022-09-14T07:10:06.535Z,18.18
2022-09-14T07:13:03.464Z,18.34
2022-09-14T07:15:51.918Z,18.45
2022-09-14T07:18:40.220Z,18.46
2022-09-14T07:21:29.235Z,18.39
2022-09-14T07:24:17.031Z,18.45
2022-09-14T07:27:04.747Z,18.47
2022-09-14T07:29:52.524Z,18.54
2022-09-14T07:32:40.340Z,18.64
2022-09-14T07:35:28.079Z,18.61
2022-09-14T07:38:17.288Z,18.65
2022-09-14T07:41:11.398Z,18.76
2022-09-14T07:44:01.312Z,18.79
2022-09-14T07:46:49.212Z,18.84
2022-09-14T07:49:36.970Z,18.79
2022-09-14T07:52:24.694Z,18.77
2022-09-14T07:55:12.527Z,18.82
2022-09-14T07:58:00.297Z,19.08
2022-09-14T08:00:48.017Z,19.09
2022-09-14T08:03:36.422Z,19.21
2022-09-14T08:06:29.023Z,19.14
2022-09-14T08:09:16.784Z,18.88
2022-09-14T08:12:05.632Z,19.03
2022-09-14T08:14:53.612Z,18.75
2022-09-14T08:17:41.403Z,18.80
2022-09-14T08:20:29.195Z,18.71
2022-09-14T08:23:16.918Z,18.72
2022-09-14T08:26:14.628Z,18.77
2022-09-14T08:29:04.773Z,18.71
2022-09-14T08:31:53.131Z,18.85
2022-09-14T08:34:40.909Z,18.98
2022-09-14T08:37:28.644Z,18.96
2022-09-14T08:40:17.984Z,18.90
2022-09-14T08:43:05.780Z,19.02
2022-09-14T08:46:03.655Z,19.01
2022-09-14T08:48:52.429Z,18.98
2022-09-14T08:51:40.333Z,18.97
2022-09-14T08:54:28.285Z,19.09
2022-09-14T08:57:29.150Z,19.15
2022-09-14T09:00:22.802Z,18.91
2022-09-14T09:03:46.473Z,18.92
2022-09-14T09:07:05.793Z,18.98
2022-09-14T09:09:56.573Z,19.07
2022-09-14T09:13:06.352Z,19.18
2022-09-14T09:15:59.789Z,19.17
2022-09-14T09:18:53.481Z,18.98
2022-09-14T09:21:47.646Z,19.15
2022-09-14T09:24:44.795Z,19.04
2022-09-14T09:27:32.451Z,18.82
2022-09-14T09:30:20.664Z,19.11
2022-09-14T09:33:17.314Z,19.37
2022-09-14T09:36:08.161Z,19.70
2022-09-14T09:38:55.891Z,19.74
2022-09-14T09:41:57.687Z,20.07
2022-09-14T09:45:05.970Z,19.92
2022-09-14T09:47:53.809Z,19.84
2022-09-14T09:51:09.615Z,19.90
2022-09-14T09:54:25.356Z,20.02
2022-09-14T09:57:37.265Z,20.10
2022-09-14T10:00:29.585Z,20.33
2022-09-14T10:03:33.314Z,20.45
2022-09-14T10:06:21.088Z,20.46
2022-09-14T10:09:21.875Z,20.51
2022-09-14T10:12:16.640Z,20.53
2022-09-14T10:15:44.318Z,20.44
2022-09-14T10:18:32.164Z,20.10
2022-09-14T10:21:23.260Z,20.24
2022-09-14T10:24:21.786Z,20.38
2022-09-14T10:27:40.613Z,20.30
2022-09-14T10:30:51.299Z,20.27
2022-09-14T10:33:40.082Z,20.36
2022-09-14T10:36:42.724Z,20.39
2022-09-14T10:39:41.171Z,20.48
2022-09-14T10:42:39.408Z,20.54
2022-09-14T10:45:36.076Z,20.61
2022-09-14T10:49:13.889Z,20.46
2022-09-14T10:52:12.232Z,20.47
2022-09-14T10:55:36.931Z,20.41
2022-09-14T10:59:08.887Z,20.42
2022-09-14T11:02:31.225Z,20.42
2022-09-14T11:05:34.788Z,20.29
2022-09-14T11:08:31.769Z,20.61
2022-09-14T11:11:47.822Z,20.68
2022-09-14T11:14:51.623Z,20.73
2022-09-14T11:18:09.940Z,20.93
2022-09-14T11:21:30.912Z,20.87
2022-09-14T11:24:34.628Z,20.78
2022-09-14T11:27:25.444Z,21.07
2022-09-14T11:30:21.055Z,21.37
2022-09-14T11:33:26.853Z,21.35
2022-09-14T11:36:23.967Z,21.35
2022-09-14T11:39:22.953Z,21.22
2022-09-14T11:42:28.934Z,21.27
2022-09-14T11:45:36.561Z,21.14
2022-09-14T11:48:57.405Z,21.22
2022-09-14T11:52:13.265Z,21.37
2022-09-14T11:55:03.131Z,21.46
2022-09-14T11:57:50.989Z,21.51
2022-09-14T12:01:22.202Z,21.61
2022-09-14T12:04:17.070Z,21.69
2022-09-14T12:07:05.167Z,21.69
2022-09-14T12:09:53.835Z,21.83
2022-09-14T12:12:48.824Z,21.86
2022-09-14T12:15:39.447Z,21.86
2022-09-14T12:18:28.095Z,21.91
2022-09-14T12:21:25.609Z,21.94
2022-09-14T12:24:21.515Z,22.20
2022-09-14T12:27:22.763Z,22.15
2022-09-14T12:30:55.330Z,22.52
2022-09-14T12:33:46.053Z,22.67
2022-09-14T12:36:36.449Z,22.68
2022-09-14T12:39:30.887Z,22.70
2022-09-14T12:42:32.072Z,22.71
2022-09-14T12:46:02.173Z,22.96
2022-09-14T12:48:54.206Z,23.07
2022-09-14T12:51:49.808Z,22.86
2022-09-14T12:55:07.458Z,22.83
2022-09-14T12:58:17.445Z,22.87
2022-09-14T13:01:31.882Z,22.81
2022-09-14T13:04:28.755Z,22.77
2022-09-14T13:07:19.685Z,22.39
2022-09-14T13:10:20.967Z,22.05
2022-09-14T13:13:25.457Z,21.68
2022-09-14T13:16:15.055Z,21.44
2022-09-14T13:19:10.194Z,20.97
2022-09-14T13:22:02.785Z,20.87
2022-09-14T13:24:51.553Z,20.89
2022-09-14T13:27:39.964Z,20.93
2022-09-14T13:30:29.478Z,20.96
2022-09-14T13:33:18.174Z,21.12
2022-09-14T13:36:07.036Z,21.17
2022-09-14T13:38:56.500Z,21.24
2022-09-14T13:41:44.812Z,21.19
2022-09-14T13:44:49.738Z,20.91
2022-09-14T13:47:39.673Z,20.76
2022-09-14T13:50:27.683Z,20.69
2022-09-14T13:53:49.059Z,20.66
2022-09-14T13:56:36.821Z,20.59
2022-09-14T13:59:24.773Z,20.65
2022-09-14T14:02:14.046Z,20.56
2022-09-14T14:05:04.029Z,20.58
2022-09-14T14:07:52.342Z,20.56
2022-09-14T14:10:46.208Z,20.52
2022-09-14T14:13:37.461Z,20.48
2022-09-14T14:16:28.988Z,20.39
2022-09-14T14:19:31.058Z,20.31
2022-09-14T14:22:26.114Z,20.29
2022-09-14T14:25:28.888Z,20.22
2022-09-14T14:28:26.497Z,20.15
2022-09-14T14:31:19.691Z,20.18
2022-09-14T14:34:33.993Z,20.08
2022-09-14T14:37:22.280Z,19.96
2022-09-14T14:40:12.618Z,19.80
2022-09-14T14:43:03.490Z,19.74
2022-09-14T14:45:57.292Z,19.80
2022-09-14T14:48:45.032Z,19.70
2022-09-14T14:51:32.764Z,19.82
2022-09-14T14:54:21.231Z,19.72
2022-09-14T14:57:10.090Z,19.49
2022-09-14T14:59:57.795Z,19.55
2022-09-14T15:02:46.063Z,19.59
2022-09-14T15:05:33.869Z,19.40
2022-09-14T15:08:21.645Z,19.44
2022-09-14T15:11:18.966Z,19.54
2022-09-14T15:14:11.845Z,19.75
2022-09-14T15:17:00.394Z,19.77
2022-09-14T15:19:48.351Z,19.91
2022-09-14T15:22:36.718Z,20.08
2022-09-14T15:25:24.434Z,20.15
2022-09-14T15:28:12.218Z,20.30
2022-09-14T15:31:03.897Z,20.43
2022-09-14T15:33:55.150Z,20.53
2022-09-14T15:36:52.483Z,20.68
2022-09-14T15:39:40.222Z,20.69
2022-09-14T15:42:28.098Z,20.80
2022-09-14T15:45:15.837Z,20.83
2022-09-14T15:48:03.630Z,20.74
2022-09-14T15:50:51.324Z,20.73
2022-09-14T15:53:39.428Z,20.55
2022-09-14T15:56:27.334Z,20.47
2022-09-14T15:59:15.080Z,20.44
2022-09-14T16:02:04.024Z,20.35
2022-09-14T16:04:52.079Z,20.20
2022-09-14T16:07:40.051Z,20.24
2022-09-14T16:10:27.838Z,20.15
2022-09-14T16:13:15.557Z,20.09
2022-09-14T16:16:15.959Z,20.08
2022-09-14T16:19:14.097Z,20.06
2022-09-14T16:22:01.911Z,20.00
2022-09-14T16:24:49.665Z,20.05
2022-09-14T16:27:37.428Z,20.00
2022-09-14T16:30:25.166Z,20.04
2022-09-14T16:33:12.972Z,20.11
2022-09-14T16:36:10.461Z,20.14
2022-09-14T16:39:04.327Z,20.05
2022-09-14T16:41:56.185Z,20.14
2022-09-14T16:44:44.064Z,20.24
2022-09-14T16:47:32.634Z,20.33
2022-09-14T16:50:20.387Z,20.38
2022-09-14T16:53:08.136Z,20.39
2022-09-14T16:56:07.688Z,20.40
2022-09-14T16:58:56.467Z,20.06
2022-09-14T17:01:48.667Z,20.14
2022-09-14T17:04:39.789Z,20.06
2022-09-14T17:07:27.637Z,19.80
2022-09-14T17:10:15.360Z,19.71
2022-09-14T17:13:03.153Z,19.46
2022-09-14T17:15:50.985Z,19.31
2022-09-14T17:18:41.181Z,19.47
2022-09-14T17:21:36.578Z,19.38
2022-09-14T17:24:25.820Z,19.34
2022-09-14T17:27:13.624Z,19.25
2022-09-14T17:30:01.331Z,19.14
2022-09-14T17:32:49.070Z,19.11
2022-09-14T17:35:36.859Z,19.02
2022-09-14T17:38:28.709Z,18.90
2022-09-14T17:41:19.850Z,18.59
2022-09-14T17:44:11.240Z,18.92
2022-09-14T17:46:59.161Z,18.69
2022-09-14T17:49:47.134Z,18.69
2022-09-14T17:52:35.394Z,18.84
2022-09-14T17:55:23.211Z,18.74
2022-09-14T17:58:10.958Z,18.72
2022-09-14T18:01:14.495Z,18.77
2022-09-14T18:04:10.022Z,18.77
2022-09-14T18:06:58.074Z,18.42
2022-09-14T18:09:45.794Z,18.69
2022-09-14T18:12:36.345Z,18.81
2022-09-14T18:15:24.043Z,18.86
2022-09-14T18:18:11.820Z,18.89
2022-09-14T18:21:00.633Z,19.15
2022-09-14T18:23:50.817Z,19.17
2022-09-14T18:26:38.556Z,19.06
2022-09-14T18:29:27.435Z,19.23
2022-09-14T18:32:15.180Z,19.03
2022-09-14T18:35:02.991Z,19.01
2022-09-14T18:37:50.715Z,19.11
2022-09-14T18:40:39.071Z,19.06
2022-09-14T18:43:26.819Z,19.24
2022-09-14T18:46:15.578Z,19.28
2022-09-14T18:49:03.670Z,19.32
2022-09-14T18:51:51.678Z,19.23
2022-09-14T18:54:39.431Z,19.31
2022-09-14T18:57:27.998Z,19.23
2022-09-14T19:00:18.738Z,19.31
2022-09-14T19:03:06.893Z,19.17
2022-09-14T19:05:54.668Z,19.18
2022-09-14T19:08:43.056Z,19.16
2022-09-14T19:11:31.812Z,19.14
2022-09-14T19:14:20.600Z,19.30
2022-09-14T19:17:08.325Z,19.35
2022-09-14T19:19:56.083Z,19.30
2022-09-14T19:22:43.844Z,19.32
2022-09-14T19:25:31.710Z,19.27
2022-09-14T19:28:19.428Z,19.04
2022-09-14T19:31:14.139Z,19.29
2022-09-14T19:34:03.856Z,19.25
2022-09-14T19:36:53.029Z,19.18
2022-09-14T19:39:42.243Z,19.14
2022-09-14T19:42:29.964Z,19.11
2022-09-14T19:45:18.757Z,18.97
2022-09-14T19:48:06.491Z,19.01
2022-09-14T19:51:03.963Z,19.17
2022-09-14T19:53:54.306Z,19.05
2022-09-14T19:56:42.500Z,19.07
2022-09-14T19:59:30.327Z,19.16
2022-09-14T20:02:18.145Z,19.22
2022-09-14T20:05:08.258Z,19.28
2022-09-14T20:07:56.036Z,19.20
2022-09-14T20:10:43.769Z,19.11
2022-09-14T20:13:32.424Z,19.18
2022-09-14T20:16:25.679Z,19.26
2022-09-14T20:19:16.636Z,19.18
2022-09-14T20:22:04.342Z,19.10
2022-09-14T20:24:52.100Z,19.05
2022-09-14T20:27:42.335Z,19.09
2022-09-14T20:30:30.134Z,18.98
2022-09-14T20:33:17.861Z,19.00
2022-09-14T20:36:12.792Z,19.06
2022-09-14T20:39:00.878Z,18.74
2022-09-14T20:41:48.972Z,19.00
2022-09-14T20:44:36.742Z,18.90
2022-09-14T20:47:24.780Z,18.83
2022-09-14T20:50:12.512Z,18.91
2022-09-14T20:53:00.769Z,18.90
2022-09-14T20:55:49.141Z,18.86
2022-09-14T20:58:37.972Z,18.90
2022-09-14T21:01:29.509Z,18.84
2022-09-14T21:04:20.958Z,18.85
2022-09-14T21:07:10.829Z,18.75
2022-09-14T21:09:59.264Z,18.67
2022-09-14T21:12:47.235Z,18.56
2022-09-14T21:15:34.968Z,18.51
2022-09-14T21:18:22.747Z,18.49
2022-09-14T21:21:13.981Z,18.36
2022-09-14T21:24:02.396Z,18.45
2022-09-14T21:26:50.719Z,18.52
2022-09-14T21:29:38.608Z,18.43
2022-09-14T21:32:26.391Z,18.48
2022-09-14T21:35:14.438Z,18.22
2022-09-14T21:38:02.194Z,18.22
2022-09-14T21:40:49.899Z,17.88
2022-09-14T21:43:40.882Z,17.87
2022-09-14T21:46:29.093Z,17.82
2022-09-14T21:49:21.817Z,17.53
2022-09-14T21:52:09.539Z,17.65
2022-09-14T21:54:57.457Z,17.45
2022-09-14T21:57:48.173Z,17.62
2022-09-14T22:00:36.006Z,17.18
2022-09-14T22:03:24.057Z,17.45
2022-09-14T22:06:13.901Z,17.44
2022-09-14T22:09:02.482Z,17.45
2022-09-14T22:11:50.334Z,17.39
2022-09-14T22:14:38.153Z,17.19
2022-09-14T22:17:29.834Z,16.94
2022-09-14T22:20:17.634Z,17.20
2022-09-14T22:23:05.371Z,17.16
2022-09-14T22:25:53.325Z,17.03
2022-09-14T22:28:41.073Z,17.03
2022-09-14T22:31:30.062Z,17.02
2022-09-14T22:34:18.129Z,16.95
2022-09-14T22:37:06.369Z,17.02
2022-09-14T22:39:54.150Z,17.05
2022-09-14T22:42:41.924Z,17.03
2022-09-14T22:45:29.677Z,17.00
2022-09-14T22:48:19.124Z,17.09
2022-09-14T22:51:10.418Z,17.03
2022-09-14T22:53:58.286Z,17.14
2022-09-14T22:56:46.021Z,17.10
2022-09-14T22:59:33.746Z,17.12
2022-09-14T23:02:21.524Z,17.08
2022-09-14T23:05:09.770Z,17.37
2022-09-14T23:07:57.690Z,17.36
2022-09-14T23:10:46.595Z,17.46
2022-09-14T23:13:42.434Z,17.58
2022-09-14T23:16:31.355Z,17.60
2022-09-14T23:19:19.448Z,17.60
2022-09-14T23:22:07.259Z,17.71
2022-09-14T23:24:55.019Z,17.68
2022-09-14T23:27:45.212Z,17.68
2022-09-14T23:30:33.950Z,17.61
2022-09-14T23:33:21.730Z,17.53
2022-09-14T23:36:09.513Z,17.63
2022-09-14T23:38:58.250Z,17.67
2022-09-14T23:41:46.079Z,17.61
2022-09-14T23:44:33.905Z,17.45
2022-09-14T23:47:21.607Z,17.34
2022-09-14T23:50:09.901Z,17.40
2022-09-14T23:52:57.779Z,17.24
2022-09-14T23:55:45.500Z,17.26
2022-09-14T23:58:33.418Z,17.28
